Time;durP1;ratioP1;P1;durP2;ratioP2;P2;SDS_P1;SDS_P2;PMS_P1;PMS_P2;Temp;Humidity;BMP_temperature;BMP_pressure;BME280_temperature;BME280_humidity;BME280_pressure;Samples;Min_cycle;Max_cycle;Signal;HPM_P1;HPM_P2
2022/09/25 00:00:38;;;;;;;;;;;;;;;14.17;70.48;101162.22;4940025;28;20527;-53
2022/09/25 00:03:03;;;;;;;;;;;;;;;14.18;70.54;101155.97;4940738;29;19922;-53
2022/09/25 00:05:28;;;;;;;;;;;;;;;14.16;70.46;101158.75;4939933;28;19937;-53
2022/09/25 00:07:55;;;;;;;;;;;;;;;14.16;70.40;101150.81;4938254;29;19958;-53
2022/09/25 00:10:21;;;;;;;;;;;;;;;14.15;70.51;101150.88;4937676;29;20366;-53
2022/09/25 00:12:46;;;;;;;;;;;;;;;14.14;70.59;101149.22;4939057;29;19977;-53
2022/09/25 00:15:11;;;;;;;;;;;;;;;14.13;70.46;101144.88;4940546;28;20605;-53
2022/09/25 00:17:37;;;;;;;;;;;;;;;14.12;70.62;101148.47;4942526;28;19925;-53
2022/09/25 00:20:02;;;;;;;;;;;;;;;14.11;70.61;101144.97;4929499;29;19946;-52
2022/09/25 00:22:29;;;;;;;;;;;;;;;14.10;70.63;101150.38;4949171;28;19918;-55
2022/09/25 00:24:54;;;;;;;;;;;;;;;14.09;70.71;101148.66;4945185;28;19922;-53
2022/09/25 00:27:19;;;;;;;;;;;;;;;14.08;70.55;101142.50;4944815;28;19927;-52
2022/09/25 00:29:46;;;;;;;;;;;;;;;14.07;70.70;101143.47;4942501;28;20022;-55
2022/09/25 00:32:12;;;;;;;;;;;;;;;14.08;70.64;101141.66;4944367;28;19981;-52
2022/09/25 00:34:37;;;;;;;;;;;;;;;14.08;70.56;101139.03;4943057;28;20017;-54
2022/09/25 00:37:03;;;;;;;;;;;;;;;14.07;70.58;101140.81;4942054;28;19918;-52
2022/09/25 00:39:29;;;;;;;;;;;;;;;14.07;70.57;101142.63;4942890;29;19935;-51
2022/09/25 00:41:54;;;;;;;;;;;;;;;14.07;70.65;101142.63;4943023;28;19918;-51
2022/09/25 00:44:38;;;;;;;;;;;;;;;14.05;70.49;101136.56;4943063;28;19958;-53
2022/09/25 00:47:04;;;;;;;;;;;;;;;14.03;70.67;101134.03;4947934;29;20370;-53
2022/09/25 00:49:29;;;;;;;;;;;;;;;14.02;70.66;101130.53;4942850;29;19929;-54
2022/09/25 00:52:01;;;;;;;;;;;;;;;14.01;70.61;101128.84;4941596;29;19937;-55
2022/09/25 00:54:32;;;;;;;;;;;;;;;14.02;70.58;101129.69;4941949;29;19965;-52
2022/09/25 00:56:58;;;;;;;;;;;;;;;14.01;70.52;101128.84;4939750;28;20313;-51
2022/09/25 00:59:27;;;;;;;;;;;;;;;14.02;70.48;101130.53;4942548;29;19942;-54
2022/09/25 01:01:54;;;;;;;;;;;;;;;14.03;70.45;101129.59;4941527;29;19946;-51
2022/09/25 01:04:21;;;;;;;;;;;;;;;14.03;70.46;101134.88;4943976;28;20025;-52
2022/09/25 01:06:48;;;;;;;;;;;;;;;14.03;70.51;101134.03;4939177;28;19922;-54
2022/09/25 01:09:14;;;;;;;;;;;;;;;14.03;70.60;101134.88;4944851;28;20029;-52
2022/09/25 01:11:39;;;;;;;;;;;;;;;14.03;70.63;101129.59;4941862;28;20013;-52
2022/09/25 01:14:06;;;;;;;;;;;;;;;14.05;70.50;101131.28;4945807;28;20282;-56
2022/09/25 01:17:07;;;;;;;;;;;;;;;14.06;70.58;101130.34;4939013;28;19926;-55
2022/09/25 01:19:46;;;;;;;;;;;;;;;14.05;70.50;101123.34;4866129;29;19963;-53
2022/09/25 01:22:14;;;;;;;;;;;;;;;14.03;70.50;101126.94;4935816;28;20395;-52
2022/09/25 01:25:08;;;;;;;;;;;;;;;14.05;70.69;101120.69;4951349;28;20011;-53
2022/09/25 01:27:57;;;;;;;;;;;;;;;14.06;70.61;101122.41;4890422;28;19947;-55
2022/09/25 01:30:22;;;;;;;;;;;;;;;14.05;70.62;101116.28;4896411;28;19927;-52
2022/09/25 01:32:57;;;;;;;;;;;;;;;14.05;70.57;101115.41;4941648;28;19926;-55
2022/09/25 01:35:25;;;;;;;;;;;;;;;14.06;70.55;101115.31;4940357;28;19918;-53
2022/09/25 01:37:51;;;;;;;;;;;;;;;14.06;70.63;101119.75;4941575;29;19926;-53
2022/09/25 01:40:32;;;;;;;;;;;;;;;14.06;70.53;101122.41;4944016;29;19937;-52
2022/09/25 01:43:13;;;;;;;;;;;;;;;14.05;70.54;101118.91;4949772;28;19922;-53
2022/09/25 01:45:45;;;;;;;;;;;;;;;14.04;70.41;101117.22;4948299;28;19926;-54
2022/09/25 01:48:13;;;;;;;;;;;;;;;14.02;70.39;101125.25;4949823;29;20009;-52
2022/09/25 01:50:48;;;;;;;;;;;;;;;14.02;70.39;101124.41;4948301;28;20014;-53
2022/09/25 01:53:16;;;;;;;;;;;;;;;14.01;70.18;101120.06;4942308;28;19930;-52
2022/09/25 01:55:47;;;;;;;;;;;;;;;14.01;70.29;101126.19;4941960;28;19927;-53
2022/09/25 01:58:22;;;;;;;;;;;;;;;14.00;70.17;101119.19;4941933;29;19927;-52
2022/09/25 02:00:50;;;;;;;;;;;;;;;13.99;70.39;101122.78;4940300;29;19937;-53
2022/09/25 02:03:20;;;;;;;;;;;;;;;13.98;70.44;101121.13;4939913;29;19930;-54
2022/09/25 02:05:51;;;;;;;;;;;;;;;13.98;70.60;101118.47;4940074;28;20888;-52
2022/09/25 02:08:19;;;;;;;;;;;;;;;13.97;70.33;101114.13;4932016;29;19930;-52
2022/09/25 02:11:02;;;;;;;;;;;;;;;13.97;70.44;101121.22;4940085;28;19922;-51
2022/09/25 02:13:36;;;;;;;;;;;;;;;13.98;70.58;101120.25;4937769;29;20060;-54
2022/09/25 02:16:04;;;;;;;;;;;;;;;13.99;70.50;101121.97;4938668;29;20388;-53
2022/09/25 02:21:14;;;;;;;;;;;;;;;13.97;70.56;101111.50;4944379;28;19938;-53
2022/09/25 02:23:54;;;;;;;;;;;;;;;13.97;70.35;101113.28;4945434;28;19919;-51
2022/09/25 02:26:30;;;;;;;;;;;;;;;13.97;70.34;101113.28;4936005;28;20360;-53
2022/09/25 02:28:55;;;;;;;;;;;;;;;13.96;70.55;101109.78;4939358;28;19926;-52
2022/09/25 02:31:22;;;;;;;;;;;;;;;13.97;70.54;101107.97;4939972;28;19926;-52
2022/09/25 02:33:48;;;;;;;;;;;;;;;13.97;70.58;101111.50;4936537;28;19937;-51
2022/09/25 02:36:18;;;;;;;;;;;;;;;13.98;70.53;101109.69;4941830;28;19927;-52
2022/09/25 02:38:44;;;;;;;;;;;;;;;13.98;70.50;101099.97;4937587;28;19925;-53
2022/09/25 02:41:17;;;;;;;;;;;;;;;13.98;70.46;101105.25;4939183;28;19931;-53
2022/09/25 02:43:57;;;;;;;;;;;;;;;13.98;70.65;101099.09;4937370;28;19930;-55
2022/09/25 02:46:28;;;;;;;;;;;;;;;13.99;70.51;101095.50;4939670;28;19918;-53
2022/09/25 02:48:58;;;;;;;;;;;;;;;13.98;70.52;101099.97;4939261;29;20405;-52
2022/09/25 02:51:30;;;;;;;;;;;;;;;13.99;70.58;101098.97;4941289;28;19981;-52
2022/09/25 02:54:05;;;;;;;;;;;;;;;13.99;70.52;101104.28;4940570;28;20014;-53
2022/09/25 02:56:33;;;;;;;;;;;;;;;13.98;70.53;101105.25;4940622;28;20519;-52
2022/09/25 02:59:04;;;;;;;;;;;;;;;13.99;70.41;101109.56;4939781;28;20025;-52
2022/09/25 03:01:30;;;;;;;;;;;;;;;13.99;70.47;101112.22;4939676;29;20422;-53
2022/09/25 03:03:57;;;;;;;;;;;;;;;13.98;70.49;101099.09;4939112;28;20030;-54
2022/09/25 03:06:24;;;;;;;;;;;;;;;13.97;70.52;101102.69;4938760;28;19926;-53
2022/09/25 03:08:53;;;;;;;;;;;;;;;13.96;70.71;101104.50;4941171;29;19949;-55
2022/09/25 03:11:20;;;;;;;;;;;;;;;13.96;70.69;101101.84;4938078;29;19919;-52
2022/09/25 03:13:53;;;;;;;;;;;;;;;13.95;70.63;101104.59;4936250;28;19927;-51
2022/09/25 03:16:22;;;;;;;;;;;;;;;13.94;70.51;101098.47;4935565;29;20001;-52
2022/09/25 03:18:47;;;;;;;;;;;;;;;13.94;70.74;101101.09;4941700;29;19954;-54
2022/09/25 03:21:13;;;;;;;;;;;;;;;13.93;70.82;101091.47;4936315;28;21785;-54
2022/09/25 03:23:39;;;;;;;;;;;;;;;13.92;70.77;101095.06;4941806;28;19986;-52
2022/09/25 03:26:04;;;;;;;;;;;;;;;13.93;70.80;101091.47;4936559;28;20377;-51
2022/09/25 03:28:30;;;;;;;;;;;;;;;13.92;70.64;101091.56;4941876;28;19923;-51
2022/09/25 03:30:59;;;;;;;;;;;;;;;13.91;70.71;101089.88;4935842;28;19931;-52
2022/09/25 03:33:26;;;;;;;;;;;;;;;13.89;70.75;101082.03;4936871;28;20346;-55
2022/09/25 03:36:01;;;;;;;;;;;;;;;13.88;70.72;101083.00;4940947;28;20410;-53
2022/09/25 03:38:26;;;;;;;;;;;;;;;13.87;70.62;101082.16;4939295;28;19919;-52
2022/09/25 03:40:51;;;;;;;;;;;;;;;13.87;70.62;101089.22;4935590;28;19937;-53
2022/09/25 03:43:17;;;;;;;;;;;;;;;13.87;70.56;101086.56;4949431;28;20294;-52
2022/09/25 03:45:42;;;;;;;;;;;;;;;13.87;70.58;101086.56;4944093;28;19934;-54
2022/09/25 03:48:07;;;;;;;;;;;;;;;13.85;70.67;101084.03;4936933;28;20704;-52
2022/09/25 03:50:33;;;;;;;;;;;;;;;13.84;70.60;101082.34;4938393;28;20024;-52
2022/09/25 03:52:58;;;;;;;;;;;;;;;13.83;70.71;101079.81;4938149;28;19930;-51
2022/09/25 03:55:24;;;;;;;;;;;;;;;13.83;70.69;101079.81;4941100;28;19931;-52
2022/09/25 03:57:50;;;;;;;;;;;;;;;13.82;70.69;101078.13;4944465;28;19957;-54
2022/09/25 04:00:15;;;;;;;;;;;;;;;13.81;70.78;101077.25;4943418;28;20382;-52
2022/09/25 04:02:41;;;;;;;;;;;;;;;13.81;70.69;101082.53;4941690;28;20326;-50
2022/09/25 04:05:06;;;;;;;;;;;;;;;13.81;70.64;101073.78;4942998;28;20387;-54
2022/09/25 04:07:32;;;;;;;;;;;;;;;13.81;70.77;101071.97;4944334;28;20049;-52
2022/09/25 04:09:57;;;;;;;;;;;;;;;13.81;70.75;101071.13;4942367;29;19953;-52
2022/09/25 04:12:22;;;;;;;;;;;;;;;13.80;70.69;101070.25;4943155;28;19926;-52
2022/09/25 04:14:47;;;;;;;;;;;;;;;13.80;70.80;101082.66;4943320;28;20291;-53
2022/09/25 04:17:13;;;;;;;;;;;;;;;13.79;70.65;101070.38;4945762;28;19923;-54
2022/09/25 04:19:38;;;;;;;;;;;;;;;13.79;70.63;101073.03;4948375;29;19930;-53
2022/09/25 04:22:03;;;;;;;;;;;;;;;13.77;70.68;101069.63;4950527;28;20390;-52
2022/09/25 04:24:47;;;;;;;;;;;;;;;13.76;70.76;101067.94;4952658;28;19918;-52
2022/09/25 04:27:13;;;;;;;;;;;;;;;13.76;70.74;101067.94;4944186;28;19926;-52
2022/09/25 04:29:38;;;;;;;;;;;;;;;13.75;70.75;101060.94;4943072;28;19922;-52
2022/09/25 04:34:47;;;;;;;;;;;;;;;13.74;70.60;101075.97;4943135;28;21167;-52
2022/09/25 04:37:13;;;;;;;;;;;;;;;13.74;70.64;101064.53;4942328;28;19922;-52
2022/09/25 04:39:39;;;;;;;;;;;;;;;13.74;70.80;101073.34;4942471;28;19987;-53
2022/09/25 04:42:04;;;;;;;;;;;;;;;13.72;70.79;101073.41;4938609;28;20017;-53
2022/09/25 04:44:30;;;;;;;;;;;;;;;13.72;70.74;101077.88;4942589;28;19937;-52
2022/09/25 04:46:56;;;;;;;;;;;;;;;13.71;70.65;101077.00;4942691;28;19918;-52
2022/09/25 04:49:21;;;;;;;;;;;;;;;13.70;70.68;101067.38;4939679;28;19923;-55
2022/09/25 04:51:46;;;;;;;;;;;;;;;13.69;70.79;101068.31;4941187;28;20057;-52
2022/09/25 04:54:13;;;;;;;;;;;;;;;13.68;70.67;101061.38;4940655;28;19930;-52
2022/09/25 04:56:39;;;;;;;;;;;;;;;13.66;70.68;101057.97;4944082;28;19922;-53
2022/09/25 04:59:04;;;;;;;;;;;;;;;13.66;70.74;101057.97;4946599;28;19938;-53
2022/09/25 05:01:29;;;;;;;;;;;;;;;13.64;70.73;101059.88;4943268;28;19969;-53
2022/09/25 05:03:54;;;;;;;;;;;;;;;13.65;70.58;101053.63;4943626;28;20413;-52
2022/09/25 05:06:20;;;;;;;;;;;;;;;13.67;70.80;101058.81;4944829;28;19930;-54
2022/09/25 05:08:49;;;;;;;;;;;;;;;13.68;70.54;101064.00;4940348;28;19922;-55
2022/09/25 05:11:14;;;;;;;;;;;;;;;13.67;70.63;101062.31;4938607;28;19918;-52
2022/09/25 05:13:42;;;;;;;;;;;;;;;13.66;70.61;101063.25;4945180;28;19934;-52
2022/09/25 05:16:08;;;;;;;;;;;;;;;13.67;70.62;101067.59;4928755;28;19922;-54
2022/09/25 05:18:33;;;;;;;;;;;;;;;13.68;70.69;101064.00;4941871;28;20461;-52
2022/09/25 05:21:01;;;;;;;;;;;;;;;13.68;70.55;101069.31;4940135;29;19937;-52
2022/09/25 05:23:27;;;;;;;;;;;;;;;13.69;70.70;101075.41;4939315;28;19926;-52
2022/09/25 05:25:57;;;;;;;;;;;;;;;13.69;70.52;101072.78;4946623;28;20029;-54
2022/09/25 05:28:23;;;;;;;;;;;;;;;13.69;70.53;101068.31;4942951;28;20472;-54
2022/09/25 05:30:49;;;;;;;;;;;;;;;13.69;70.64;101065.69;4938117;29;19965;-56
2022/09/25 05:33:14;;;;;;;;;;;;;;;13.70;70.59;101067.38;4939456;29;20337;-56
2022/09/25 05:35:40;;;;;;;;;;;;;;;13.69;70.58;101065.69;4940527;28;20009;-55
2022/09/25 05:38:07;;;;;;;;;;;;;;;13.69;70.59;101078.91;4940224;29;19945;-53
2022/09/25 05:40:33;;;;;;;;;;;;;;;13.70;70.48;101070.03;4939336;29;19930;-52
2022/09/25 05:42:59;;;;;;;;;;;;;;;13.70;70.52;101075.31;4943742;29;19933;-52
2022/09/25 05:45:24;;;;;;;;;;;;;;;13.70;70.43;101075.31;4940859;28;19978;-52
2022/09/25 05:48:00;;;;;;;;;;;;;;;13.71;70.51;101069.06;4936569;29;19946;-52
2022/09/25 05:50:26;;;;;;;;;;;;;;;13.72;70.55;101068.13;4941278;29;20013;-54
2022/09/25 05:52:57;;;;;;;;;;;;;;;13.74;70.47;101059.25;4940738;28;20049;-53
2022/09/25 05:55:23;;;;;;;;;;;;;;;13.74;70.35;101061.91;4940167;28;19930;-54
2022/09/25 05:57:48;;;;;;;;;;;;;;;13.76;70.45;101062.66;4941749;28;19929;-54
2022/09/25 06:00:15;;;;;;;;;;;;;;;13.76;70.44;101062.66;4944786;28;19926;-52
2022/09/25 06:02:40;;;;;;;;;;;;;;;13.77;70.36;101059.06;4940064;28;19922;-53
2022/09/25 06:05:06;;;;;;;;;;;;;;;13.78;70.27;101060.75;4940647;28;19977;-52
2022/09/25 06:07:31;;;;;;;;;;;;;;;13.79;70.48;101065.09;4936694;28;20017;-52
2022/09/25 06:09:56;;;;;;;;;;;;;;;13.79;70.37;101068.56;4938077;28;19923;-52
2022/09/25 06:12:23;;;;;;;;;;;;;;;13.81;70.56;101060.56;4940572;28;19970;-53
2022/09/25 06:14:48;;;;;;;;;;;;;;;13.81;70.35;101056.09;4941731;28;20021;-54
2022/09/25 06:17:14;;;;;;;;;;;;;;;13.81;70.28;101053.44;4940154;28;20005;-51
2022/09/25 06:19:39;;;;;;;;;;;;;;;13.83;70.40;101050.72;4943320;28;19941;-52
2022/09/25 06:22:04;;;;;;;;;;;;;;;13.83;70.41;101048.06;4951278;28;19933;-52
2022/09/25 06:24:30;;;;;;;;;;;;;;;13.85;70.44;101051.44;4943268;28;19923;-53
2022/09/25 06:26:55;;;;;;;;;;;;;;;13.85;70.46;101049.66;4940891;28;20358;-51
2022/09/25 06:29:20;;;;;;;;;;;;;;;13.87;70.39;101057.47;4940813;28;20343;-52
2022/09/25 06:31:46;;;;;;;;;;;;;;;13.89;70.48;101055.59;4941291;28;19923;-54
2022/09/25 06:34:11;;;;;;;;;;;;;;;13.92;70.40;101054.53;4944884;28;19931;-54
2022/09/25 06:36:37;;;;;;;;;;;;;;;13.94;70.36;101063.22;4938602;28;19936;-52
2022/09/25 06:39:02;;;;;;;;;;;;;;;13.96;70.31;101058.66;4940553;28;19930;-53
2022/09/25 06:41:28;;;;;;;;;;;;;;;13.96;70.30;101054.25;4940994;28;19922;-52
2022/09/25 06:43:54;;;;;;;;;;;;;;;13.98;70.34;101057.63;4943170;28;19933;-52
2022/09/25 06:46:19;;;;;;;;;;;;;;;14.01;70.42;101060.03;4942972;28;19965;-52
2022/09/25 06:48:53;;;;;;;;;;;;;;;14.03;70.52;101058.16;4937346;28;19930;-53
2022/09/25 06:51:18;;;;;;;;;;;;;;;14.06;70.41;101061.53;4944048;28;19930;-53
2022/09/25 06:53:44;;;;;;;;;;;;;;;14.08;70.36;101063.13;4947660;28;20263;-51
2022/09/25 06:56:09;;;;;;;;;;;;;;;14.10;70.32;101060.41;4947691;28;19926;-55
2022/09/25 06:58:34;;;;;;;;;;;;;;;14.13;70.35;101071.63;4940695;28;19925;-52
2022/09/25 07:01:00;;;;;;;;;;;;;;;14.16;70.22;101068.75;4943739;28;19926;-51
2022/09/25 07:03:44;;;;;;;;;;;;;;;14.19;70.33;101070.34;4943335;28;19923;-52
2022/09/25 07:06:10;;;;;;;;;;;;;;;14.22;70.26;101070.13;4944650;28;19997;-52
2022/09/25 07:08:36;;;;;;;;;;;;;;;14.25;70.22;101064.66;4941247;28;19918;-52
2022/09/25 07:11:01;;;;;;;;;;;;;;;14.27;70.23;101057.47;4940651;28;19926;-52
2022/09/25 07:13:28;;;;;;;;;;;;;;;14.31;70.34;101064.22;4942697;29;19922;-53
2022/09/25 07:15:58;;;;;;;;;;;;;;;14.35;70.25;101071.94;4941915;28;19973;-54
2022/09/25 07:18:24;;;;;;;;;;;;;;;14.38;70.27;101071.75;4943252;28;20555;-52
2022/09/25 07:20:49;;;;;;;;;;;;;;;14.42;70.20;101073.22;4927565;29;20002;-52
2022/09/25 07:23:16;;;;;;;;;;;;;;;14.45;70.05;101076.50;4940477;28;19976;-55
2022/09/25 07:25:41;;;;;;;;;;;;;;;14.49;70.10;101071.84;4944924;28;20394;-52
2022/09/25 07:28:08;;;;;;;;;;;;;;;14.52;70.16;101078.75;4942712;28;19934;-52
2022/09/25 07:30:33;;;;;;;;;;;;;;;14.53;70.08;101078.63;4946219;28;19980;-52
2022/09/25 07:32:58;;;;;;;;;;;;;;;14.55;70.02;101081.16;4946685;28;19930;-52
2022/09/25 07:35:24;;;;;;;;;;;;;;;14.58;69.91;101086.25;4950627;28;19930;-52
2022/09/25 07:37:50;;;;;;;;;;;;;;;14.57;69.92;101077.47;4942928;28;20009;-52
2022/09/25 07:40:15;;;;;;;;;;;;;;;14.59;69.84;101077.34;4945102;29;20041;-52
2022/09/25 07:42:40;;;;;;;;;;;;;;;14.60;69.88;101079.06;4923894;28;19930;-50
2022/09/25 07:45:06;;;;;;;;;;;;;;;14.62;69.78;101077.16;4949103;28;20017;-50
2022/09/25 07:47:32;;;;;;;;;;;;;;;14.64;69.67;101089.31;4947418;28;19918;-55
2022/09/25 07:49:57;;;;;;;;;;;;;;;14.67;69.65;101084.75;4949628;28;20366;-52
2022/09/25 07:52:23;;;;;;;;;;;;;;;14.69;69.58;101080.25;4945209;28;20009;-52
2022/09/25 07:54:48;;;;;;;;;;;;;;;14.71;69.54;101081.00;4949488;29;19973;-53
2022/09/25 07:57:13;;;;;;;;;;;;;;;14.74;69.50;101072.84;4937713;28;20302;-52
2022/09/25 07:59:39;;;;;;;;;;;;;;;14.80;69.62;101075.03;4948334;28;19962;-56
2022/09/25 08:02:04;;;;;;;;;;;;;;;14.84;69.39;101076.53;4950281;28;20012;-55
2022/09/25 08:04:30;;;;;;;;;;;;;;;14.89;69.41;101076.19;4949244;28;20016;-53
2022/09/25 08:06:57;;;;;;;;;;;;;;;14.91;69.27;101064.50;4947263;28;20275;-52
2022/09/25 08:09:22;;;;;;;;;;;;;;;14.97;69.25;101067.69;4940290;29;19934;-52
2022/09/25 08:11:48;;;;;;;;;;;;;;;14.99;69.19;101068.44;4940154;28;19928;-52
2022/09/25 08:14:13;;;;;;;;;;;;;;;15.02;69.03;101068.22;4945570;28;19942;-55
2022/09/25 08:16:39;;;;;;;;;;;;;;;15.05;69.12;101065.38;4925807;28;20422;-55
2022/09/25 08:19:05;;;;;;;;;;;;;;;15.09;69.08;101064.16;4938127;28;19933;-54
2022/09/25 08:21:30;;;;;;;;;;;;;;;15.13;68.95;101070.94;4937866;28;19919;-52
2022/09/25 08:23:55;;;;;;;;;;;;;;;15.16;68.91;101070.72;4943369;28;20310;-54
2022/09/25 08:26:21;;;;;;;;;;;;;;;15.19;68.89;101062.56;4940230;28;19926;-53
2022/09/25 08:28:47;;;;;;;;;;;;;;;15.24;68.77;101060.41;4947529;28;19918;-52
2022/09/25 08:31:13;;;;;;;;;;;;;;;15.29;68.79;101054.75;4942306;28;19922;-53
2022/09/25 08:33:39;;;;;;;;;;;;;;;15.34;68.63;101047.34;4939056;28;20013;-53
2022/09/25 08:36:04;;;;;;;;;;;;;;;15.37;68.54;101043.59;4945602;29;19922;-55
2022/09/25 08:38:33;;;;;;;;;;;;;;;15.40;68.42;101046.03;4943352;29;19931;-54
2022/09/25 08:41:02;;;;;;;;;;;;;;;15.45;68.28;101043.91;4942754;28;20006;-52
2022/09/25 08:43:29;;;;;;;;;;;;;;;15.48;68.29;101043.69;4945167;28;20520;-52
2022/09/25 08:49:02;;;;;;;;;;;;;;;15.58;68.40;101048.28;4940409;28;19933;-52
2022/09/25 08:51:28;;;;;;;;;;;;;;;15.62;68.24;101041.81;4939677;28;20364;-52
2022/09/25 08:53:54;;;;;;;;;;;;;;;15.66;68.24;101045.91;4947271;29;19969;-53
2022/09/25 08:56:19;;;;;;;;;;;;;;;15.70;68.14;101050.88;4945113;29;19977;-53
2022/09/25 08:58:48;;;;;;;;;;;;;;;15.74;68.12;101048.84;4947051;29;19965;-53
2022/09/25 09:01:15;;;;;;;;;;;;;;;15.76;68.01;101046.94;4946453;28;19934;-52
2022/09/25 09:03:59;;;;;;;;;;;;;;;15.78;68.09;101047.66;4949235;28;20014;-52
2022/09/25 09:06:27;;;;;;;;;;;;;;;15.82;67.91;101040.31;4941788;28;19941;-52
2022/09/25 09:08:57;;;;;;;;;;;;;;;15.86;67.72;101041.81;4939208;28;19926;-53
2022/09/25 09:11:30;;;;;;;;;;;;;;;15.89;67.55;101046.84;4941521;28;19923;-53
2022/09/25 09:14:03;;;;;;;;;;;;;;;15.92;67.48;101041.31;4945122;29;19922;-54
2022/09/25 09:16:41;;;;;;;;;;;;;;;15.95;67.28;101034.97;4943147;28;20398;-52
2022/09/25 09:19:08;;;;;;;;;;;;;;;15.98;67.41;101029.41;4943966;29;19928;-55
2022/09/25 09:21:35;;;;;;;;;;;;;;;16.00;67.20;101030.13;4946403;28;19934;-52
2022/09/25 09:24:04;;;;;;;;;;;;;;;16.03;67.05;101027.25;4943035;28;19923;-52
2022/09/25 09:26:37;;;;;;;;;;;;;;;16.04;67.05;101031.59;4938413;28;20428;-54
2022/09/25 09:29:23;;;;;;;;;;;;;;;16.06;66.95;101026.16;4942524;28;19930;-52
2022/09/25 09:31:51;;;;;;;;;;;;;;;16.08;67.10;101030.41;4901324;28;19923;-54
2022/09/25 09:34:25;;;;;;;;;;;;;;;16.11;67.01;101019.53;4941291;28;20432;-53
2022/09/25 09:36:56;;;;;;;;;;;;;;;16.13;66.96;101030.88;4943122;28;19965;-55
2022/09/25 09:39:25;;;;;;;;;;;;;;;16.13;66.99;101030.03;4933145;28;19922;-55
2022/09/25 09:42:01;;;;;;;;;;;;;;;16.13;66.76;101030.03;4932054;28;20009;-52
2022/09/25 09:44:49;;;;;;;;;;;;;;;16.13;66.71;101022.91;4916098;29;19923;-51
2022/09/25 09:47:16;;;;;;;;;;;;;;;16.13;66.64;101020.25;4925868;28;19939;-53
2022/09/25 09:49:49;;;;;;;;;;;;;;;16.12;66.65;101015.91;4922000;29;19927;-51
2022/09/25 09:52:24;;;;;;;;;;;;;;;16.13;66.57;101016.78;4922404;29;19929;-52
2022/09/25 09:55:02;;;;;;;;;;;;;;;16.12;66.52;101010.59;4926249;29;21131;-53
2022/09/25 09:57:32;;;;;;;;;;;;;;;16.13;66.59;101014.13;4928946;29;19929;-52
2022/09/25 10:00:04;;;;;;;;;;;;;;;16.13;66.41;101014.94;4920305;29;20346;-54
2022/09/25 10:02:30;;;;;;;;;;;;;;;16.16;66.68;101005.94;4924094;29;20391;-52
2022/09/25 10:04:57;;;;;;;;;;;;;;;16.18;66.50;101008.44;4921772;29;19993;-52
2022/09/25 10:07:25;;;;;;;;;;;;;;;16.18;66.25;100997.81;4921072;29;19922;-54
2022/09/25 10:09:53;;;;;;;;;;;;;;;16.19;66.21;100996.88;4922012;29;20901;-53
2022/09/25 10:12:27;;;;;;;;;;;;;;;16.21;66.10;101002.91;4924741;29;19931;-55
2022/09/25 10:15:03;;;;;;;;;;;;;;;16.24;65.85;100997.38;5068690;27;19963;-54
2022/09/25 10:17:28;;;;;;;;;;;;;;;16.27;65.74;100997.09;5067608;28;19917;-51
2022/09/25 10:19:56;;;;;;;;;;;;;;;16.29;65.53;100992.53;5069435;28;19955;-52
2022/09/25 10:22:25;;;;;;;;;;;;;;;16.32;65.64;100992.28;5080695;28;20732;-52
2022/09/25 10:24:57;;;;;;;;;;;;;;;16.36;65.50;100988.44;5074705;28;19927;-50
2022/09/25 10:27:28;;;;;;;;;;;;;;;16.43;65.30;100981.66;5077133;28;20473;-52
2022/09/25 10:30:09;;;;;;;;;;;;;;;16.52;65.23;100984.56;5068533;28;19923;-53
2022/09/25 10:32:53;;;;;;;;;;;;;;;16.60;65.14;100980.34;5071030;28;19955;-52
2022/09/25 10:35:20;;;;;;;;;;;;;;;16.70;64.76;100974.28;5066054;28;20287;-52
2022/09/25 10:37:51;;;;;;;;;;;;;;;16.77;64.69;100981.63;5058147;28;19928;-53
2022/09/25 10:40:24;;;;;;;;;;;;;;;16.84;64.42;100974.00;5063005;28;19920;-54
2022/09/25 10:43:01;;;;;;;;;;;;;;;16.89;64.41;100966.53;5060185;28;19925;-52
2022/09/25 10:45:28;;;;;;;;;;;;;;;16.94;64.22;100971.47;5055395;28;19927;-51
2022/09/25 10:50:38;;;;;;;;;;;;;;;17.00;64.02;100963.03;5068989;28;19969;-51
2022/09/25 10:53:04;;;;;;;;;;;;;;;17.05;64.00;100955.50;5065447;28;19928;-52
2022/09/25 10:55:36;;;;;;;;;;;;;;;17.10;63.51;100962.25;5075871;28;20406;-52
2022/09/25 10:58:13;;;;;;;;;;;;;;;17.15;63.49;100962.75;5065256;28;20356;-52
2022/09/25 11:00:45;;;;;;;;;;;;;;;17.23;63.13;100967.44;5062718;28;20752;-52
2022/09/25 11:03:19;;;;;;;;;;;;;;;17.29;63.01;100967.75;5076511;28;20857;-52
2022/09/25 11:05:48;;;;;;;;;;;;;;;17.34;62.49;100965.53;5065634;28;20359;-52
2022/09/25 11:08:15;;;;;;;;;;;;;;;17.42;62.30;100962.25;5059752;28;19920;-53
2022/09/25 11:10:55;;;;;;;;;;;;;;;17.46;62.06;100957.53;5064117;28;21812;-51
2022/09/25 11:13:26;;;;;;;;;;;;;;;17.51;61.86;100960.63;5045487;28;20346;-52
2022/09/25 11:15:56;;;;;;;;;;;;;;;17.58;61.43;100967.16;5057654;28;19926;-53
2022/09/25 11:18:36;;;;;;;;;;;;;;;17.61;61.28;100969.56;5066380;28;20015;-52
2022/09/25 11:21:02;;;;;;;;;;;;;;;17.66;61.32;100963.84;5062457;28;20005;-53
2022/09/25 11:23:39;;;;;;;;;;;;;;;17.74;61.00;100971.19;5053786;28;19935;-53
2022/09/25 11:26:09;;;;;;;;;;;;;;;17.81;60.85;100967.00;5043639;28;19913;-53
2022/09/25 11:28:34;;;;;;;;;;;;;;;17.85;60.38;100963.13;5043633;28;19912;-52
2022/09/25 11:31:04;;;;;;;;;;;;;;;17.91;60.48;100957.28;5029625;28;19980;-52
2022/09/25 11:33:41;;;;;;;;;;;;;;;17.94;60.15;100950.84;5039830;28;19924;-53
2022/09/25 11:36:14;;;;;;;;;;;;;;;17.98;60.03;100953.13;5040478;28;19913;-51
2022/09/25 11:41:54;;;;;;;;;;;;;;;18.08;60.18;100947.84;5037722;28;19919;-52
2022/09/25 11:44:19;;;;;;;;;;;;;;;18.13;60.05;100945.66;5039782;28;19916;-53
2022/09/25 11:46:57;;;;;;;;;;;;;;;18.17;59.88;100940.91;5037129;28;20502;-53
2022/09/25 11:49:26;;;;;;;;;;;;;;;18.22;60.06;100932.50;5050048;28;19967;-51
2022/09/25 11:51:55;;;;;;;;;;;;;;;18.27;59.82;100931.13;5039914;28;19912;-53
2022/09/25 11:54:24;;;;;;;;;;;;;;;18.33;59.91;100936.91;5047667;28;19928;-53
2022/09/25 11:56:49;;;;;;;;;;;;;;;18.41;59.42;100929.06;5041926;28;20357;-52
2022/09/25 11:59:37;;;;;;;;;;;;;;;18.47;59.23;100927.66;5034694;28;20762;-52
2022/09/25 12:02:11;;;;;;;;;;;;;;;18.52;59.00;100928.97;5049592;28;19913;-51
2022/09/25 12:04:38;;;;;;;;;;;;;;;18.55;58.80;100922.50;5042485;28;19913;-52
2022/09/25 12:07:24;;;;;;;;;;;;;;;18.56;58.87;100916.22;5045991;28;19924;-55
2022/09/25 12:09:55;;;;;;;;;;;;;;;18.57;58.70;100918.72;5045676;28;19917;-52
2022/09/25 12:12:27;;;;;;;;;;;;;;;18.55;58.55;100910.03;5046325;28;19917;-50
2022/09/25 12:15:13;;;;;;;;;;;;;;;18.55;58.71;100904.69;5027698;28;19941;-52
2022/09/25 12:17:41;;;;;;;;;;;;;;;18.57;58.39;100910.72;5012824;28;19992;-51
2022/09/25 12:20:33;;;;;;;;;;;;;;;18.59;58.49;100905.28;5007361;28;20297;-54
2022/09/25 12:23:22;;;;;;;;;;;;;;;18.59;58.69;100892.78;5010311;28;19909;-51
2022/09/25 12:26:04;;;;;;;;;;;;;;;18.59;58.46;100897.28;5007803;28;19967;-51
2022/09/25 12:28:51;;;;;;;;;;;;;;;18.58;58.76;100899.09;5009219;28;20047;-54
2022/09/25 12:31:31;;;;;;;;;;;;;;;18.58;58.68;100895.59;5013749;28;20980;-54
2022/09/25 12:34:05;;;;;;;;;;;;;;;18.58;58.42;100900.94;5011857;28;19971;-51
2022/09/25 12:36:36;;;;;;;;;;;;;;;18.57;58.55;100897.41;5012399;28;19917;-51
2022/09/25 12:39:23;;;;;;;;;;;;;;;18.57;58.35;100893.91;5014156;28;19913;-52
2022/09/25 12:42:18;;;;;;;;;;;;;;;18.55;58.38;100896.69;5004627;28;20265;-52
2022/09/25 12:45:01;;;;;;;;;;;;;;;18.52;58.32;100886.34;5004023;28;19936;-52
2022/09/25 12:47:45;;;;;;;;;;;;;;;18.50;57.91;100876.78;5010751;28;19971;-52
2022/09/25 12:50:13;;;;;;;;;;;;;;;18.51;57.94;100883.78;5006172;28;19983;-52
2022/09/25 12:52:41;;;;;;;;;;;;;;;18.54;57.56;100879.03;5003360;28;19917;-51
2022/09/25 12:55:06;;;;;;;;;;;;;;;18.58;57.42;100875.13;5007786;28;19932;-53
2022/09/25 12:57:38;;;;;;;;;;;;;;;18.61;57.23;100873.16;5010387;28;20334;-53
2022/09/25 13:00:12;;;;;;;;;;;;;;;18.64;57.47;100872.88;5004683;28;19917;-53